createdAt,value
2019-06-01T00:00:15.258Z,15.70
2019-06-01T00:01:15.293Z,15.70
2019-06-01T00:03:08.293Z,15.67
2019-06-01T00:04:08.344Z,15.72
2019-06-01T00:06:01.358Z,15.75
2019-06-01T00:07:01.393Z,15.64
2019-06-01T00:08:54.380Z,15.68
2019-06-01T00:09:54.440Z,15.65
2019-06-01T00:11:47.589Z,15.59
2019-06-01T00:12:47.673Z,15.47
2019-06-01T00:14:41.692Z,15.68
2019-06-01T00:15:40.534Z,15.49
2019-06-01T00:17:33.522Z,15.51
2019-06-01T00:18:33.583Z,15.43
2019-06-01T00:20:26.590Z,15.47
2019-06-01T00:21:26.632Z,15.43
2019-06-01T00:23:19.640Z,15.46
2019-06-01T00:24:19.682Z,15.57
2019-06-01T00:26:12.677Z,15.43
2019-06-01T00:27:12.736Z,15.44
2019-06-01T00:29:05.746Z,15.42
2019-06-01T00:30:05.788Z,15.37
2019-06-01T00:31:58.777Z,15.44
2019-06-01T00:32:58.847Z,15.36
2019-06-01T00:34:51.944Z,15.35
2019-06-01T00:35:51.886Z,15.43
2019-06-01T00:37:45.635Z,15.33
2019-06-01T00:38:45.675Z,15.44
2019-06-01T00:40:37.952Z,15.39
2019-06-01T00:41:37.988Z,15.35
2019-06-01T00:43:30.974Z,15.42
2019-06-01T00:44:31.031Z,15.24
2019-06-01T00:46:24.047Z,15.14
2019-06-01T00:47:24.078Z,15.27
2019-06-01T00:49:17.065Z,15.09
2019-06-01T00:50:17.126Z,15.35
2019-06-01T00:52:10.143Z,15.28
2019-06-01T00:53:10.174Z,15.29
2019-06-01T00:55:03.158Z,15.11
2019-06-01T00:56:03.220Z,15.25
2019-06-01T00:57:56.734Z,15.33
2019-06-01T00:58:56.774Z,15.24
2019-06-01T01:00:52.050Z,15.06
2019-06-01T01:01:50.111Z,15.15
2019-06-01T01:03:43.870Z,15.06
2019-06-01T01:04:44.167Z,15.06
2019-06-01T01:06:35.886Z,14.91
2019-06-01T01:07:38.205Z,15.00
2019-06-01T01:09:28.940Z,14.86
2019-06-01T01:10:28.974Z,14.99
2019-06-01T01:12:21.967Z,14.94
2019-06-01T01:13:22.022Z,14.99
2019-06-01T01:15:15.043Z,14.88
2019-06-01T01:16:15.074Z,14.89
2019-06-01T01:18:08.069Z,14.72
2019-06-01T01:19:08.119Z,14.72
2019-06-01T01:21:01.119Z,14.73
2019-06-01T01:22:01.190Z,14.69
2019-06-01T01:23:54.767Z,14.60
2019-06-01T01:24:54.593Z,14.59
2019-06-01T01:26:48.404Z,14.50
2019-06-01T01:27:49.075Z,14.40
2019-06-01T01:29:40.239Z,14.29
2019-06-01T01:30:40.299Z,14.30
2019-06-01T01:32:33.319Z,14.35
2019-06-01T01:33:33.349Z,14.41
2019-06-01T01:35:26.337Z,14.37
2019-06-01T01:36:26.400Z,14.30
2019-06-01T01:38:19.414Z,14.29
2019-06-01T01:39:19.445Z,14.35
2019-06-01T01:41:12.437Z,14.30
2019-06-01T01:42:12.503Z,14.30
2019-06-01T01:44:05.497Z,14.33
2019-06-01T01:45:05.559Z,14.30
2019-06-01T01:46:59.048Z,14.26
2019-06-01T01:47:59.245Z,14.26
2019-06-01T01:49:52.077Z,14.25
2019-06-01T01:50:52.386Z,14.18
2019-06-01T01:52:44.648Z,14.17
2019-06-01T01:53:44.691Z,14.20
2019-06-01T01:55:37.668Z,14.22
2019-06-01T01:56:37.727Z,14.20
2019-06-01T01:58:30.730Z,14.20
2019-06-01T01:59:30.770Z,14.30
2019-06-01T02:01:23.768Z,14.30
2019-06-01T02:02:23.817Z,14.22
2019-06-01T02:04:16.833Z,14.30
2019-06-01T02:05:16.866Z,14.33
2019-06-01T02:07:09.851Z,14.32
2019-06-01T02:08:09.912Z,14.22
2019-06-01T02:10:02.925Z,14.45
2019-06-01T02:11:02.956Z,14.41
2019-06-01T02:12:55.960Z,14.37
2019-06-01T02:13:56.008Z,14.30
2019-06-01T02:15:49.018Z,14.20
2019-06-01T02:16:49.063Z,14.11
2019-06-01T02:18:42.047Z,14.03
2019-06-01T02:19:42.116Z,13.99
2019-06-01T02:21:35.120Z,13.89
2019-06-01T02:22:35.156Z,13.85
2019-06-01T02:24:28.174Z,13.95
2019-06-01T02:25:28.203Z,13.89
2019-06-01T02:27:21.189Z,13.90
2019-06-01T02:28:21.269Z,13.97
2019-06-01T02:30:14.278Z,13.87
2019-06-01T02:31:14.311Z,13.89
2019-06-01T02:33:07.319Z,13.90
2019-06-01T02:34:07.375Z,13.85
2019-06-01T02:36:00.721Z,13.87
2019-06-01T02:37:00.411Z,13.85
2019-06-01T02:38:54.620Z,13.85
2019-06-01T02:39:54.331Z,13.70
2019-06-01T02:41:46.429Z,13.72
2019-06-01T02:42:46.507Z,13.74
2019-06-01T02:44:39.493Z,13.89
2019-06-01T02:45:39.540Z,13.93
2019-06-01T02:47:32.535Z,14.08
2019-06-01T02:48:32.576Z,14.05
2019-06-01T02:50:25.598Z,14.12
2019-06-01T02:51:25.624Z,14.17
2019-06-01T02:53:18.606Z,14.10
2019-06-01T02:54:18.665Z,14.11
2019-06-01T02:56:11.679Z,14.04
2019-06-01T02:57:11.720Z,13.92
2019-06-01T02:59:04.728Z,13.85
2019-06-01T03:00:04.955Z,13.85
2019-06-01T03:02:01.406Z,13.74
2019-06-01T03:02:58.626Z,13.87
2019-06-01T03:04:50.839Z,13.92
2019-06-01T03:05:50.854Z,13.85
2019-06-01T03:07:43.857Z,13.86
2019-06-01T03:08:43.898Z,13.74
2019-06-01T03:10:36.885Z,13.79
2019-06-01T03:11:36.942Z,13.86
2019-06-01T03:13:29.945Z,13.68
2019-06-01T03:14:29.985Z,13.71
2019-06-01T03:16:23.003Z,13.67
2019-06-01T03:17:23.032Z,13.70
2019-06-01T03:19:16.015Z,13.59
2019-06-01T03:20:16.075Z,13.63
2019-06-01T03:22:09.082Z,13.57
2019-06-01T03:23:09.121Z,13.57
2019-06-01T03:25:02.219Z,13.56
2019-06-01T03:26:02.190Z,13.59
2019-06-01T03:27:55.190Z,13.63
2019-06-01T03:28:55.221Z,13.65
2019-06-01T03:30:48.206Z,13.70
2019-06-01T03:31:48.274Z,13.67
2019-06-01T03:33:41.279Z,13.67
2019-06-01T03:34:41.554Z,13.59
2019-06-01T03:36:34.296Z,13.54
2019-06-01T03:37:34.352Z,13.54
2019-06-01T03:39:27.360Z,13.59
2019-06-01T03:40:27.396Z,13.53
2019-06-01T03:42:20.398Z,13.60
2019-06-01T03:43:20.458Z,13.62
2019-06-01T03:45:13.452Z,13.89
2019-06-01T03:46:13.484Z,13.93
2019-06-01T03:48:06.750Z,13.99
2019-06-01T03:49:07.615Z,14.05
2019-06-01T03:50:59.534Z,14.08
2019-06-01T03:52:00.570Z,14.03
2019-06-01T03:53:52.583Z,13.93
2019-06-01T03:54:52.623Z,13.85
2019-06-01T03:56:45.637Z,13.85
2019-06-01T03:57:45.668Z,13.92
2019-06-01T03:59:38.654Z,14.04
2019-06-01T04:00:38.715Z,14.03
2019-06-01T04:02:33.402Z,14.08
2019-06-01T04:03:31.761Z,14.10
2019-06-01T04:05:24.743Z,14.17
2019-06-01T04:06:24.803Z,14.15
2019-06-01T04:08:17.821Z,14.25
2019-06-01T04:09:17.853Z,14.18
2019-06-01T04:11:11.727Z,14.15
2019-06-01T04:12:11.982Z,14.14
2019-06-01T04:14:03.924Z,14.22
2019-06-01T04:15:10.192Z,14.37
2019-06-01T04:16:56.934Z,14.44
2019-06-01T04:17:56.996Z,14.40
2019-06-01T04:19:50.003Z,14.40
2019-06-01T04:20:50.040Z,14.37
2019-06-01T04:22:43.053Z,14.50
2019-06-01T04:23:43.088Z,14.54
2019-06-01T04:25:36.069Z,14.65
2019-06-01T04:26:36.130Z,14.59
2019-06-01T04:28:29.139Z,14.69
2019-06-01T04:29:29.176Z,14.69
2019-06-01T04:31:22.162Z,14.77
2019-06-01T04:32:22.218Z,14.68
2019-06-01T04:34:15.240Z,14.68
2019-06-01T04:35:15.257Z,14.78
2019-06-01T04:37:09.203Z,14.82
2019-06-01T04:38:09.223Z,14.84
2019-06-01T04:40:01.358Z,14.84
2019-06-01T04:41:01.356Z,14.92
2019-06-01T04:42:54.346Z,15.04
2019-06-01T04:43:54.406Z,15.10
2019-06-01T04:45:47.424Z,15.17
2019-06-01T04:46:47.448Z,15.09
2019-06-01T04:48:40.494Z,15.03
2019-06-01T04:49:40.512Z,15.04
2019-06-01T04:51:33.500Z,15.03
2019-06-01T04:52:33.541Z,15.10
2019-06-01T04:54:26.554Z,15.06
2019-06-01T04:55:26.593Z,15.04
2019-06-01T04:57:20.115Z,15.14
2019-06-01T04:58:20.165Z,15.07
2019-06-01T05:00:26.877Z,15.07
2019-06-01T05:01:13.184Z,15.04
2019-06-01T05:03:08.542Z,15.03
2019-06-01T05:04:07.111Z,15.07
2019-06-01T05:05:59.222Z,15.00
2019-06-01T05:06:59.286Z,15.10
2019-06-01T05:08:52.296Z,15.17
2019-06-01T05:09:52.458Z,15.14
2019-06-01T05:11:45.325Z,15.22
2019-06-01T05:12:45.373Z,15.21
2019-06-01T05:14:38.386Z,15.29
2019-06-01T05:15:38.420Z,15.36
2019-06-01T05:17:31.444Z,15.44
2019-06-01T05:18:31.472Z,15.37
2019-06-01T05:20:24.480Z,15.40
2019-06-01T05:21:24.516Z,15.47
2019-06-01T05:23:17.523Z,15.59
2019-06-01T05:24:17.566Z,15.68
2019-06-01T05:26:10.953Z,15.73
2019-06-01T05:27:11.121Z,15.83
2019-06-01T05:29:03.638Z,15.91
2019-06-01T05:30:03.661Z,15.97
2019-06-01T05:31:56.645Z,16.02
2019-06-01T05:32:56.715Z,16.17
2019-06-01T05:34:49.741Z,16.21
2019-06-01T05:35:49.758Z,16.33
2019-06-01T05:37:42.742Z,16.42
2019-06-01T05:38:42.803Z,16.38
2019-06-01T05:40:35.816Z,16.46
2019-06-01T05:41:35.854Z,16.53
2019-06-01T05:43:28.874Z,16.50
2019-06-01T05:44:28.903Z,16.66
2019-06-01T05:46:22.279Z,16.66
2019-06-01T05:47:22.510Z,16.74
2019-06-01T05:49:14.978Z,16.79
2019-06-01T05:50:15.007Z,16.87
2019-06-01T05:52:07.991Z,17.02
2019-06-01T05:53:08.051Z,17.05
2019-06-01T05:55:01.055Z,17.15
2019-06-01T05:56:01.094Z,17.30
2019-06-01T05:57:54.591Z,17.39
2019-06-01T05:58:54.666Z,17.51
2019-06-01T06:00:47.669Z,17.71
2019-06-01T06:01:47.700Z,17.85
2019-06-01T06:03:40.920Z,18.00
2019-06-01T06:04:40.784Z,18.33
2019-06-01T06:06:33.763Z,18.38
2019-06-01T06:07:33.806Z,18.58
2019-06-01T06:09:26.810Z,18.86
2019-06-01T06:10:26.862Z,19.16
2019-06-01T06:12:19.882Z,19.44
2019-06-01T06:13:19.921Z,20.04
2019-06-01T06:15:13.532Z,21.66
2019-06-01T06:16:13.814Z,22.80
2019-06-01T06:18:05.996Z,23.98
2019-06-01T06:19:06.027Z,24.29
2019-06-01T06:20:59.022Z,25.29
2019-06-01T06:21:59.078Z,25.73
2019-06-01T06:23:52.100Z,25.84
2019-06-01T06:24:52.141Z,25.81
2019-06-01T06:26:45.159Z,26.37
2019-06-01T06:27:45.194Z,26.99
2019-06-01T06:29:38.195Z,27.83
2019-06-01T06:30:38.259Z,28.27
2019-06-01T06:32:31.277Z,28.85
2019-06-01T06:33:31.324Z,29.36
2019-06-01T06:35:24.341Z,29.90
2019-06-01T06:36:24.396Z,30.10
2019-06-01T06:38:17.821Z,29.97
2019-06-01T06:39:17.937Z,30.21
2019-06-01T06:41:10.521Z,30.39
2019-06-01T06:42:10.533Z,30.57
2019-06-01T06:44:03.541Z,30.66
2019-06-01T06:45:03.881Z,30.85
2019-06-01T06:46:56.630Z,30.81
2019-06-01T06:47:56.684Z,30.80
2019-06-01T06:49:49.722Z,31.49
2019-06-01T06:50:49.760Z,31.69
2019-06-01T06:52:42.784Z,32.43
2019-06-01T06:53:42.835Z,31.66
2019-06-01T06:55:35.863Z,31.09
2019-06-01T06:56:35.924Z,30.88
2019-06-01T06:58:28.946Z,31.92
2019-06-01T06:59:29.004Z,31.80
2019-06-01T07:01:22.893Z,32.68
2019-06-01T07:02:22.882Z,31.40
2019-06-01T07:04:15.123Z,31.90
2019-06-01T07:05:15.189Z,32.19
2019-06-01T07:07:08.179Z,33.20
2019-06-01T07:08:08.254Z,33.64
2019-06-01T07:10:01.284Z,33.62
2019-06-01T07:11:01.344Z,33.17
2019-06-01T07:12:54.346Z,34.03
2019-06-01T07:13:54.419Z,34.25
2019-06-01T07:15:47.458Z,34.18
2019-06-01T07:16:47.511Z,34.58
2019-06-01T07:18:40.527Z,34.39
2019-06-01T07:19:40.607Z,34.50
2019-06-01T07:21:33.664Z,34.60
2019-06-01T07:22:33.698Z,33.99
2019-06-01T07:24:27.960Z,33.98
2019-06-01T07:25:26.917Z,34.32
2019-06-01T07:27:19.973Z,34.35
2019-06-01T07:28:19.983Z,34.14
2019-06-01T07:30:12.908Z,33.94
2019-06-01T07:31:12.953Z,33.94
2019-06-01T07:33:05.963Z,33.28
2019-06-01T07:34:06.037Z,33.83
2019-06-01T07:35:59.068Z,33.27
2019-06-01T07:36:59.139Z,33.20
2019-06-01T07:38:52.171Z,33.69
2019-06-01T07:39:52.223Z,33.52
2019-06-01T07:41:45.253Z,33.90
2019-06-01T07:42:45.317Z,34.17
2019-06-01T07:44:38.349Z,34.52
2019-06-01T07:45:38.410Z,35.12
2019-06-01T07:47:31.424Z,35.44
2019-06-01T07:48:31.514Z,35.44
2019-06-01T07:50:24.534Z,35.27
2019-06-01T07:51:25.173Z,34.96
2019-06-01T07:53:17.627Z,34.50
2019-06-01T07:54:17.682Z,34.61
2019-06-01T07:56:10.725Z,34.73
2019-06-01T07:57:10.783Z,34.58
2019-06-01T07:59:03.811Z,35.02
2019-06-01T08:00:03.884Z,34.97
2019-06-01T08:01:56.920Z,34.85
2019-06-01T08:02:56.967Z,35.17
2019-06-01T08:04:54.232Z,35.46
2019-06-01T08:05:50.077Z,34.90
2019-06-01T08:07:43.112Z,35.61
2019-06-01T08:08:43.159Z,35.86
2019-06-01T08:10:36.188Z,35.80
2019-06-01T08:11:36.259Z,35.74
2019-06-01T08:13:32.202Z,35.70
2019-06-01T08:14:30.531Z,35.66
2019-06-01T08:16:23.574Z,35.64
2019-06-01T08:17:23.941Z,35.51
2019-06-01T08:19:15.485Z,35.07
2019-06-01T08:20:15.559Z,34.57
2019-06-01T08:22:08.589Z,33.95
2019-06-01T08:23:08.635Z,33.83
2019-06-01T08:25:01.670Z,34.05
2019-06-01T08:26:01.725Z,34.57
2019-06-01T08:27:54.761Z,34.78
2019-06-01T08:28:54.817Z,33.98
2019-06-01T08:30:47.834Z,33.79
2019-06-01T08:31:47.910Z,34.03
2019-06-01T08:33:40.953Z,34.74
2019-06-01T08:34:41.003Z,35.04
2019-06-01T08:36:34.068Z,35.45
2019-06-01T08:37:34.103Z,35.30
2019-06-01T08:39:27.427Z,34.30
2019-06-01T08:40:27.426Z,33.79
2019-06-01T08:42:20.224Z,34.21
2019-06-01T08:43:20.287Z,34.43
2019-06-01T08:45:13.333Z,34.45
2019-06-01T08:46:13.386Z,34.54
2019-06-01T08:48:06.409Z,34.92
2019-06-01T08:49:06.479Z,34.52
2019-06-01T08:50:59.531Z,35.17
2019-06-01T08:51:59.578Z,35.56
2019-06-01T08:53:52.599Z,35.70
2019-06-01T08:54:52.678Z,36.05
2019-06-01T08:56:45.718Z,36.61
2019-06-01T08:57:45.791Z,37.02
2019-06-01T08:59:38.801Z,36.81
2019-06-01T09:00:38.880Z,36.68
2019-06-01T09:02:32.799Z,36.52
2019-06-01T09:03:32.007Z,36.54
2019-06-01T09:05:26.741Z,36.17
2019-06-01T09:06:25.074Z,36.05
2019-06-01T09:08:18.119Z,34.64
2019-06-01T09:09:18.177Z,34.43
2019-06-01T09:11:11.203Z,34.60
2019-06-01T09:12:11.329Z,35.44
2019-06-01T09:14:04.323Z,36.23
2019-06-01T09:15:04.379Z,35.29
2019-06-01T09:16:57.433Z,34.40
2019-06-01T09:17:57.477Z,34.70
2019-06-01T09:19:50.520Z,34.78
2019-06-01T09:20:50.572Z,34.81
2019-06-01T09:22:43.602Z,35.19
2019-06-01T09:23:43.678Z,35.12
2019-06-01T09:25:36.718Z,35.17
2019-06-01T09:26:36.773Z,34.88
2019-06-01T09:28:29.923Z,34.43
2019-06-01T09:29:30.071Z,33.53
2019-06-01T09:31:22.889Z,32.92
2019-06-01T09:32:22.966Z,32.59
2019-06-01T09:34:16.009Z,32.11
2019-06-01T09:35:16.061Z,31.43
2019-06-01T09:37:09.098Z,30.57
2019-06-01T09:38:09.155Z,29.66
2019-06-01T09:40:02.186Z,29.44
2019-06-01T09:41:02.279Z,29.44
2019-06-01T09:42:55.274Z,29.41
2019-06-01T09:43:55.335Z,28.94
2019-06-01T09:45:52.755Z,28.26
2019-06-01T09:46:48.434Z,28.10
2019-06-01T09:48:41.456Z,28.07
2019-06-01T09:49:41.517Z,27.63
2019-06-01T09:51:35.720Z,27.68
2019-06-01T09:52:35.553Z,27.82
2019-06-01T09:54:29.408Z,27.96
2019-06-01T09:55:29.007Z,27.89
2019-06-01T09:57:20.744Z,28.01
2019-06-01T09:58:20.776Z,28.01
2019-06-01T10:00:13.798Z,28.07
2019-06-01T10:01:13.855Z,28.23
2019-06-01T10:03:06.866Z,28.35
2019-06-01T10:04:06.934Z,27.93
2019-06-01T10:06:02.182Z,28.02
2019-06-01T10:07:00.012Z,28.12
2019-06-01T10:08:53.034Z,28.25
2019-06-01T10:09:53.088Z,27.90
2019-06-01T10:11:46.081Z,28.14
2019-06-01T10:12:46.157Z,28.29
2019-06-01T10:14:39.430Z,28.26
2019-06-01T10:15:39.230Z,28.47
2019-06-01T10:17:33.371Z,28.07
2019-06-01T10:18:32.724Z,27.85
2019-06-01T10:20:25.328Z,27.74
2019-06-01T10:21:25.379Z,27.73
2019-06-01T10:23:18.413Z,27.77
2019-06-01T10:24:18.485Z,27.74
2019-06-01T10:26:11.477Z,27.75
2019-06-01T10:27:11.544Z,27.40
2019-06-01T10:29:04.546Z,27.37
2019-06-01T10:30:04.622Z,27.54
2019-06-01T10:31:57.643Z,27.47
2019-06-01T10:32:57.687Z,27.63
2019-06-01T10:34:50.715Z,27.83
2019-06-01T10:35:50.771Z,27.87
2019-06-01T10:37:43.789Z,27.95
2019-06-01T10:38:43.837Z,28.14
2019-06-01T10:40:37.622Z,28.15
2019-06-01T10:41:37.446Z,28.14
2019-06-01T10:43:29.928Z,28.00
2019-06-01T10:44:31.538Z,27.96
2019-06-01T10:46:23.018Z,28.04
2019-06-01T10:47:23.048Z,28.04
2019-06-01T10:49:16.064Z,28.14
2019-06-01T10:50:17.461Z,28.08
2019-06-01T10:52:09.132Z,28.08
2019-06-01T10:53:09.228Z,28.20
2019-06-01T10:55:02.227Z,28.10
2019-06-01T10:56:02.285Z,28.10
2019-06-01T10:57:55.816Z,27.75
2019-06-01T10:59:00.348Z,27.47
2019-06-01T11:00:51.058Z,27.32
2019-06-01T11:01:48.936Z,27.49
2019-06-01T11:03:42.875Z,27.47
2019-06-01T11:04:43.449Z,27.52
2019-06-01T11:06:40.865Z,27.52
2019-06-01T11:07:35.074Z,27.42
2019-06-01T11:09:28.093Z,27.51
2019-06-01T11:10:28.142Z,27.67
2019-06-01T11:12:21.148Z,27.73
2019-06-01T11:13:21.211Z,27.74
2019-06-01T11:15:14.249Z,27.90
2019-06-01T11:16:14.279Z,27.77
2019-06-01T11:18:07.283Z,27.70
2019-06-01T11:19:07.349Z,27.74
2019-06-01T11:21:00.367Z,27.86
2019-06-01T11:22:00.419Z,27.83
2019-06-01T11:23:53.430Z,27.70
2019-06-01T11:24:53.499Z,27.77
2019-06-01T11:26:46.529Z,27.75
2019-06-01T11:27:46.574Z,27.67
2019-06-01T11:29:47.692Z,27.64
2019-06-01T11:30:40.014Z,27.68
2019-06-01T11:32:33.677Z,27.78
2019-06-01T11:33:34.041Z,27.90
2019-06-01T11:35:25.721Z,27.92
2019-06-01T11:36:25.792Z,27.92
2019-06-01T11:38:18.809Z,27.65
2019-06-01T11:39:18.861Z,27.63
2019-06-01T11:41:11.875Z,27.49
2019-06-01T11:42:11.931Z,27.64
2019-06-01T11:44:04.947Z,27.45
2019-06-01T11:45:04.998Z,27.67
2019-06-01T11:46:58.023Z,27.74
2019-06-01T11:47:58.068Z,27.77
2019-06-01T11:49:51.074Z,27.80
2019-06-01T11:50:51.137Z,27.80
2019-06-01T11:52:45.344Z,27.82
2019-06-01T11:53:45.496Z,27.90
2019-06-01T11:55:37.210Z,28.00
2019-06-01T11:56:37.329Z,27.92
2019-06-01T11:58:30.812Z,27.92
2019-06-01T11:59:30.855Z,27.96
2019-06-01T12:01:23.877Z,27.65
2019-06-01T12:02:23.927Z,27.59
2019-06-01T12:04:16.941Z,27.64
2019-06-01T12:05:16.997Z,27.71
2019-06-01T12:07:17.602Z,27.77
2019-06-01T12:08:10.076Z,27.89
2019-06-01T12:10:03.072Z,27.90
2019-06-01T12:11:03.153Z,27.96
2019-06-01T12:12:56.159Z,28.02
2019-06-01T12:13:56.209Z,28.07
2019-06-01T12:15:49.213Z,27.98
2019-06-01T12:16:49.281Z,28.05
2019-06-01T12:18:42.620Z,28.01
2019-06-01T12:19:42.735Z,28.08
2019-06-01T12:21:36.847Z,28.00
2019-06-01T12:22:36.689Z,28.07
2019-06-01T12:24:28.442Z,27.98
2019-06-01T12:25:28.496Z,27.86
2019-06-01T12:27:21.501Z,27.74
2019-06-01T12:28:21.562Z,27.90
2019-06-01T12:30:14.584Z,27.70
2019-06-01T12:31:14.632Z,27.65
2019-06-01T12:33:07.673Z,27.65
2019-06-01T12:34:07.715Z,27.67
2019-06-01T12:36:00.705Z,27.82
2019-06-01T12:37:00.770Z,27.78
2019-06-01T12:38:53.791Z,27.90
2019-06-01T12:39:54.406Z,27.85
2019-06-01T12:41:47.765Z,27.95
2019-06-01T12:42:47.735Z,28.07
2019-06-01T12:44:39.909Z,28.05
2019-06-01T12:45:39.977Z,28.12
2019-06-01T12:47:33.000Z,28.23
2019-06-01T12:48:33.046Z,28.15
2019-06-01T12:50:26.069Z,28.15
2019-06-01T12:51:26.116Z,28.20
2019-06-01T12:53:19.116Z,28.20
2019-06-01T12:54:19.182Z,28.22
2019-06-01T12:56:12.203Z,28.23
2019-06-01T12:57:12.255Z,28.17
2019-06-01T12:59:05.274Z,27.92
2019-06-01T13:00:05.321Z,27.90
2019-06-01T13:01:58.348Z,27.89
2019-06-01T13:03:06.948Z,27.95
2019-06-01T13:04:51.387Z,28.04
2019-06-01T13:05:51.894Z,28.08
2019-06-01T13:07:56.131Z,28.26
2019-06-01T13:08:44.742Z,28.26
2019-06-01T13:10:37.524Z,28.32
2019-06-01T13:11:37.587Z,28.32
2019-06-01T13:13:30.614Z,28.14
2019-06-01T13:14:30.664Z,28.19
2019-06-01T13:16:23.686Z,28.11
2019-06-01T13:17:23.743Z,28.17
2019-06-01T13:19:16.768Z,28.10
2019-06-01T13:20:16.816Z,28.22
2019-06-01T13:22:09.849Z,28.15
2019-06-01T13:23:09.881Z,28.05
2019-06-01T13:25:02.880Z,28.14
2019-06-01T13:26:02.951Z,28.15
2019-06-01T13:27:55.969Z,28.32
2019-06-01T13:28:56.017Z,28.29
2019-06-01T13:30:49.672Z,28.33
2019-06-01T13:31:50.361Z,28.30
2019-06-01T13:33:42.273Z,28.29
2019-06-01T13:34:42.580Z,28.30
2019-06-01T13:36:35.156Z,28.23
2019-06-01T13:37:35.231Z,28.23
2019-06-01T13:39:28.264Z,28.26
2019-06-01T13:40:28.299Z,28.22
2019-06-01T13:42:21.296Z,28.19
2019-06-01T13:43:21.368Z,28.11
2019-06-01T13:45:14.402Z,28.12
2019-06-01T13:46:14.445Z,28.02
2019-06-01T13:48:07.461Z,27.90
2019-06-01T13:49:07.511Z,27.95
2019-06-01T13:51:00.515Z,28.00
2019-06-01T13:52:00.582Z,28.11
2019-06-01T13:53:54.624Z,28.11
2019-06-01T13:54:54.711Z,28.14
2019-06-01T13:56:46.835Z,27.96
2019-06-01T13:57:46.729Z,27.96
2019-06-01T13:59:39.727Z,27.98
2019-06-01T14:00:39.796Z,27.98
2019-06-01T14:02:32.808Z,27.89
2019-06-01T14:03:32.863Z,28.02
2019-06-01T14:05:25.867Z,28.08
2019-06-01T14:06:25.933Z,28.02
2019-06-01T14:08:28.373Z,28.00
2019-06-01T14:09:21.871Z,28.08
2019-06-01T14:11:12.002Z,28.08
2019-06-01T14:12:12.067Z,28.11
2019-06-01T14:14:05.088Z,28.02
2019-06-01T14:15:05.147Z,28.08
2019-06-01T14:16:58.144Z,28.07
2019-06-01T14:17:58.207Z,28.00
2019-06-01T14:19:51.729Z,27.90
2019-06-01T14:20:51.719Z,27.89
2019-06-01T14:22:45.672Z,27.93
2019-06-01T14:23:45.659Z,27.92
2019-06-01T14:25:37.343Z,28.07
2019-06-01T14:26:37.409Z,28.00
2019-06-01T14:28:30.429Z,28.14
2019-06-01T14:29:30.479Z,28.12
2019-06-01T14:31:23.511Z,28.10
2019-06-01T14:32:23.549Z,28.08
2019-06-01T14:34:16.550Z,28.04
2019-06-01T14:35:16.616Z,28.17
2019-06-01T14:37:09.637Z,28.23
2019-06-01T14:38:09.718Z,28.30
2019-06-01T14:40:02.706Z,28.33
2019-06-01T14:41:02.760Z,28.35
2019-06-01T14:42:55.779Z,28.23
2019-06-01T14:43:56.318Z,28.22
2019-06-01T14:45:49.575Z,28.17
2019-06-01T14:46:56.030Z,28.04
2019-06-01T14:48:41.909Z,28.04
2019-06-01T14:49:41.960Z,28.08
2019-06-01T14:51:34.979Z,28.04
2019-06-01T14:52:35.387Z,28.02
2019-06-01T14:54:28.046Z,27.93
2019-06-01T14:55:28.102Z,28.02
2019-06-01T14:57:21.112Z,28.05
2019-06-01T14:58:21.162Z,28.04
2019-06-01T15:00:14.166Z,28.05
2019-06-01T15:01:28.927Z,28.04
2019-06-01T15:03:07.240Z,28.04
2019-06-01T15:04:07.313Z,28.01
2019-06-01T15:06:00.337Z,27.95
2019-06-01T15:07:00.425Z,27.95
2019-06-01T15:09:10.922Z,27.96
2019-06-01T15:09:54.298Z,27.93
2019-06-01T15:11:46.491Z,27.93
2019-06-01T15:12:52.127Z,28.01
2019-06-01T15:14:39.549Z,28.01
2019-06-01T15:15:39.606Z,28.04
2019-06-01T15:17:35.884Z,28.15
2019-06-01T15:18:35.622Z,28.12
2019-06-01T15:20:28.795Z,28.01
2019-06-01T15:21:28.845Z,28.04
2019-06-01T15:23:21.584Z,27.90
2019-06-01T15:24:21.914Z,27.92
2019-06-01T15:26:26.607Z,27.92
2019-06-01T15:27:26.394Z,27.89
2019-06-01T15:29:19.607Z,27.93
2019-06-01T15:30:19.593Z,27.83
2019-06-01T15:32:26.660Z,27.87
2019-06-01T15:33:23.940Z,27.87
2019-06-01T15:35:17.044Z,27.93
2019-06-01T15:36:16.819Z,27.95
2019-06-01T15:38:09.897Z,27.93
2019-06-01T15:39:23.589Z,27.90
2019-06-01T15:41:02.902Z,27.92
2019-06-01T15:42:02.946Z,27.92
2019-06-01T15:43:57.024Z,27.92
2019-06-01T15:44:56.979Z,27.95
2019-06-01T15:46:49.035Z,27.89
2019-06-01T15:47:49.082Z,27.80
2019-06-01T15:49:42.102Z,27.82
2019-06-01T15:50:42.152Z,27.85
2019-06-01T15:52:35.199Z,27.77
2019-06-01T15:53:35.405Z,27.75
2019-06-01T15:57:26.471Z,27.64
2019-06-01T15:58:49.446Z,27.67
2019-06-01T16:00:18.816Z,27.68
2019-06-01T16:01:18.864Z,27.67
2019-06-01T16:03:11.866Z,27.42
2019-06-01T16:04:11.935Z,27.47
2019-06-01T16:06:04.956Z,27.36
2019-06-01T16:07:05.018Z,27.44
2019-06-01T16:08:59.274Z,27.36
2019-06-01T16:09:59.305Z,27.49
2019-06-01T16:11:51.062Z,27.49
2019-06-01T16:12:51.129Z,27.47
2019-06-01T16:14:44.147Z,27.40
2019-06-01T16:15:44.195Z,27.54
2019-06-01T16:17:37.223Z,27.54
2019-06-01T16:18:37.284Z,27.45
2019-06-01T16:20:30.285Z,27.49
2019-06-01T16:21:30.348Z,27.48
2019-06-01T16:23:23.345Z,27.49
2019-06-01T16:24:23.408Z,27.54
2019-06-01T16:26:16.740Z,27.48
2019-06-01T16:27:16.464Z,27.51
2019-06-01T16:29:09.492Z,27.54
2019-06-01T16:30:09.536Z,27.51
2019-06-01T16:32:03.001Z,27.51
2019-06-01T16:33:02.957Z,27.58
2019-06-01T16:34:56.888Z,27.48
2019-06-01T16:35:56.909Z,27.52
2019-06-01T16:37:48.731Z,27.49
2019-06-01T16:38:48.734Z,27.49
2019-06-01T16:40:41.759Z,27.47
2019-06-01T16:41:41.812Z,27.39
2019-06-01T16:43:34.813Z,27.45
2019-06-01T16:44:34.877Z,27.54
2019-06-01T16:46:27.919Z,27.45
2019-06-01T16:47:27.958Z,27.47
2019-06-01T16:49:20.989Z,27.47
2019-06-01T16:50:21.017Z,27.42
2019-06-01T16:52:14.055Z,27.32
2019-06-01T16:53:14.098Z,27.27
2019-06-01T16:55:07.327Z,27.18
2019-06-01T16:56:07.174Z,27.30
2019-06-01T16:58:01.244Z,27.29
2019-06-01T16:59:00.263Z,27.26
2019-06-01T17:00:53.215Z,27.25
2019-06-01T17:01:53.295Z,27.26
2019-06-01T17:03:46.332Z,27.20
2019-06-01T17:04:46.357Z,27.26
2019-06-01T17:06:39.390Z,27.20
2019-06-01T17:07:39.441Z,27.25
2019-06-01T17:09:32.456Z,27.20
2019-06-01T17:10:32.514Z,27.14
2019-06-01T17:12:25.545Z,27.07
2019-06-01T17:13:25.581Z,27.03
2019-06-01T17:15:18.594Z,26.93
2019-06-01T17:16:18.647Z,26.96
2019-06-01T17:18:11.655Z,26.88
2019-06-01T17:19:11.719Z,26.88
2019-06-01T17:21:05.573Z,26.89
2019-06-01T17:22:05.611Z,26.84
2019-06-01T17:23:57.783Z,26.83
2019-06-01T17:24:57.849Z,26.96
2019-06-01T17:26:50.865Z,26.84
2019-06-01T17:27:50.924Z,26.88
2019-06-01T17:29:43.927Z,26.90
2019-06-01T17:30:43.991Z,26.93
2019-06-01T17:32:37.052Z,26.95
2019-06-01T17:33:37.063Z,26.90
2019-06-01T17:35:30.065Z,26.90
2019-06-01T17:36:31.155Z,26.95
2019-06-01T17:38:23.149Z,26.85
2019-06-01T17:39:23.204Z,26.92
2019-06-01T17:41:16.224Z,26.83
2019-06-01T17:42:16.272Z,26.73
2019-06-01T17:44:09.290Z,26.70
2019-06-01T17:45:09.672Z,26.58
2019-06-01T17:47:02.379Z,26.48
2019-06-01T17:48:18.147Z,26.47
2019-06-01T17:49:55.455Z,26.43
2019-06-01T17:50:55.474Z,26.40
2019-06-01T17:52:48.477Z,26.43
2019-06-01T17:53:48.537Z,26.44
2019-06-01T17:55:41.561Z,26.34
2019-06-01T17:56:41.606Z,26.31
2019-06-01T17:58:34.623Z,26.36
2019-06-01T17:59:34.679Z,26.33
2019-06-01T18:01:27.676Z,26.26
2019-06-01T18:02:27.744Z,26.26
2019-06-01T18:04:20.775Z,26.18
2019-06-01T18:05:20.808Z,26.22
2019-06-01T18:07:13.805Z,26.22
2019-06-01T18:08:14.007Z,26.19
2019-06-01T18:10:08.113Z,26.23
2019-06-01T18:11:08.026Z,26.25
2019-06-01T18:12:59.985Z,26.10
2019-06-01T18:14:00.014Z,26.06
2019-06-01T18:15:53.001Z,26.05
2019-06-01T18:16:53.088Z,26.05
2019-06-01T18:18:46.085Z,25.95
2019-06-01T18:19:46.138Z,25.99
2019-06-01T18:21:39.166Z,25.99
2019-06-01T18:22:39.197Z,26.00
2019-06-01T18:24:32.205Z,25.98
2019-06-01T18:25:32.262Z,25.93
2019-06-01T18:27:25.300Z,26.00
2019-06-01T18:28:25.337Z,25.98
2019-06-01T18:30:18.335Z,25.95
2019-06-01T18:31:18.411Z,25.91
2019-06-01T18:33:11.413Z,25.81
2019-06-01T18:34:11.774Z,25.72
2019-06-01T18:36:05.426Z,25.72